createdAt,value
2018-08-30T00:01:44.374Z,11.07
2018-08-30T00:04:12.664Z,9.47
2018-08-30T00:06:40.948Z,12.97
2018-08-30T00:09:09.232Z,11.13
2018-08-30T00:11:37.493Z,11.63
2018-08-30T00:14:05.793Z,9.53
2018-08-30T00:16:34.526Z,14.10
2018-08-30T00:24:02.493Z,11.87
2018-08-30T00:26:49.541Z,10.30
2018-08-30T00:29:17.885Z,11.37
2018-08-30T00:31:46.161Z,11.03
2018-08-30T00:34:14.438Z,9.37
2018-08-30T00:36:42.725Z,11.80
2018-08-30T00:39:11.084Z,11.57
2018-08-30T00:41:39.377Z,12.43
2018-08-30T00:44:07.664Z,15.53
2018-08-30T00:46:35.961Z,11.20
2018-08-30T00:49:04.253Z,10.87
2018-08-30T00:51:32.525Z,11.70
2018-08-30T00:54:00.816Z,12.30
2018-08-30T00:56:29.186Z,14.70
2018-08-30T00:58:57.464Z,10.97
2018-08-30T01:01:25.741Z,11.03
2018-08-30T01:03:54.034Z,11.57
2018-08-30T01:06:22.377Z,16.00
2018-08-30T01:08:50.621Z,12.13
2018-08-30T01:11:18.903Z,11.10
2018-08-30T01:14:02.708Z,11.67
2018-08-30T01:16:31.064Z,10.30
2018-08-30T01:27:57.630Z,10.23
2018-08-30T01:30:25.968Z,11.87
2018-08-30T01:32:54.273Z,13.47
2018-08-30T01:35:22.618Z,12.33
2018-08-30T01:37:50.933Z,10.97
2018-08-30T01:40:19.274Z,10.47
2018-08-30T01:42:47.617Z,8.23
2018-08-30T01:45:15.928Z,9.50
2018-08-30T01:47:44.226Z,12.63
2018-08-30T01:50:12.553Z,13.67
2018-08-30T01:52:40.870Z,13.07
2018-08-30T01:55:09.171Z,10.73
2018-08-30T01:57:37.520Z,11.90
2018-08-30T02:00:05.829Z,14.40
2018-08-30T02:02:34.107Z,9.47
2018-08-30T02:05:02.376Z,10.63
2018-08-30T02:07:30.675Z,11.73
2018-08-30T02:09:58.952Z,11.87
2018-08-30T02:12:43.936Z,10.80
2018-08-30T02:15:12.204Z,12.40
2018-08-30T02:17:40.513Z,11.93
2018-08-30T02:20:25.021Z,9.63
2018-08-30T02:22:56.900Z,10.00
2018-08-30T02:25:25.165Z,10.03
2018-08-30T02:27:53.417Z,8.60
2018-08-30T02:30:21.680Z,9.17
2018-08-30T02:32:49.958Z,11.03
2018-08-30T02:35:18.241Z,13.43
2018-08-30T02:37:46.544Z,10.73
2018-08-30T02:40:14.828Z,11.23
2018-08-30T02:42:43.133Z,11.50
2018-08-30T02:45:11.517Z,9.90
2018-08-30T02:47:39.785Z,13.37
2018-08-30T02:50:08.086Z,13.33
2018-08-30T02:52:36.363Z,13.17
2018-08-30T02:55:04.625Z,11.83
2018-08-30T02:57:32.912Z,14.33
2018-08-30T03:00:01.204Z,10.83
2018-08-30T03:02:29.482Z,11.53
2018-08-30T03:04:57.786Z,11.63
2018-08-30T03:07:26.062Z,10.97
2018-08-30T03:09:54.332Z,11.83
2018-08-30T03:12:22.648Z,12.80
2018-08-30T03:17:43.332Z,13.17
2018-08-30T03:20:13.082Z,15.03
2018-08-30T03:22:47.754Z,12.87
2018-08-30T03:28:09.189Z,15.73
2018-08-30T03:30:37.583Z,13.90
2018-08-30T03:33:05.830Z,10.23
2018-08-30T03:35:34.137Z,12.53
2018-08-30T03:38:02.489Z,15.70
2018-08-30T03:40:30.846Z,16.00
2018-08-30T03:42:59.162Z,11.97
2018-08-30T03:45:27.489Z,15.30
2018-08-30T03:47:55.854Z,16.60
2018-08-30T03:50:24.154Z,16.87
2018-08-30T03:52:52.473Z,11.47
2018-08-30T03:55:20.955Z,11.63
2018-08-30T03:57:49.076Z,12.97
2018-08-30T04:00:17.354Z,14.00
2018-08-30T04:02:45.632Z,14.07
2018-08-30T04:05:13.911Z,13.57
2018-08-30T04:07:42.194Z,13.23
2018-08-30T04:10:10.521Z,15.27
2018-08-30T04:23:40.861Z,16.60
2018-08-30T04:26:09.173Z,12.43
2018-08-30T04:28:37.485Z,12.50
2018-08-30T04:31:05.829Z,16.00
2018-08-30T04:33:34.125Z,11.10
2018-08-30T04:36:02.452Z,13.63
2018-08-30T04:38:30.806Z,17.60
2018-08-30T04:40:59.113Z,12.23
2018-08-30T04:43:27.403Z,15.00
2018-08-30T04:45:55.725Z,18.50
2018-08-30T04:48:24.047Z,14.90
2018-08-30T04:50:52.373Z,14.17
2018-08-30T04:53:20.701Z,12.87
2018-08-30T04:55:48.986Z,13.70
2018-08-30T04:58:17.281Z,19.60
2018-08-30T05:00:45.568Z,15.33
2018-08-30T05:03:13.837Z,13.67
2018-08-30T05:05:42.139Z,15.63
2018-08-30T05:08:10.423Z,14.23
2018-08-30T05:10:38.737Z,15.70
2018-08-30T05:13:13.702Z,16.67
2018-08-30T05:18:34.426Z,16.77
2018-08-30T06:13:05.643Z,19.43
2018-08-30T06:18:45.303Z,18.10
2018-08-30T06:24:23.001Z,26.13
2018-08-30T06:26:51.651Z,22.13
2018-08-30T06:29:19.974Z,21.80
2018-08-30T06:31:48.292Z,24.30
2018-08-30T06:34:16.610Z,21.13
2018-08-30T06:36:45.065Z,30.63
2018-08-30T06:39:13.357Z,22.97
2018-08-30T06:41:41.660Z,24.33
2018-08-30T06:44:09.961Z,23.50
2018-08-30T06:46:38.290Z,29.90
2018-08-30T06:49:06.635Z,26.30
2018-08-30T06:51:34.966Z,28.97
2018-08-30T06:54:03.285Z,35.40
2018-08-30T06:56:31.560Z,25.53
2018-08-30T06:58:59.849Z,27.13
2018-08-30T07:01:28.113Z,28.10
2018-08-30T07:03:56.373Z,26.33
2018-08-30T07:06:24.669Z,25.43
2018-08-30T07:08:52.982Z,27.60
2018-08-30T07:11:21.266Z,26.87
2018-08-30T07:16:42.562Z,33.27
2018-08-30T07:19:10.869Z,35.40
2018-08-30T08:25:29.597Z,44.63
2018-08-30T08:27:58.082Z,39.17
2018-08-30T08:30:26.401Z,46.63
2018-08-30T08:32:54.726Z,41.97
2018-08-30T08:35:23.061Z,37.17
2018-08-30T08:37:51.374Z,41.90
2018-08-30T08:40:19.716Z,40.57
2018-08-30T08:42:48.026Z,40.77
2018-08-30T08:45:16.324Z,37.97
2018-08-30T08:47:44.632Z,41.50
2018-08-30T08:50:12.989Z,39.60
2018-08-30T08:52:41.313Z,38.40
2018-08-30T08:55:09.617Z,37.60
2018-08-30T08:57:37.925Z,36.80
2018-08-30T09:00:06.218Z,40.30
2018-08-30T09:02:34.501Z,39.17
2018-08-30T09:05:02.806Z,38.90
2018-08-30T09:07:31.142Z,37.57
2018-08-30T09:09:59.435Z,37.53
2018-08-30T09:12:27.713Z,36.33
2018-08-30T09:23:55.432Z,31.93
2018-08-30T09:26:23.783Z,33.40
2018-08-30T09:28:52.069Z,33.40
2018-08-30T09:31:20.394Z,32.70
2018-08-30T09:33:48.788Z,36.27
2018-08-30T09:36:17.076Z,36.20
2018-08-30T09:38:45.376Z,34.80
2018-08-30T09:41:13.721Z,34.47
2018-08-30T09:43:42.038Z,30.37
2018-08-30T09:46:10.357Z,36.60
2018-08-30T09:48:38.665Z,39.03
2018-08-30T09:51:06.961Z,33.87
2018-08-30T09:53:35.271Z,28.97
2018-08-30T09:56:03.841Z,29.07
2018-08-30T09:58:32.129Z,33.60
2018-08-30T10:01:05.831Z,36.97
2018-08-30T10:03:34.133Z,29.60
2018-08-30T10:06:02.417Z,26.87
2018-08-30T10:08:30.693Z,30.63
2018-08-30T10:10:58.999Z,36.77
2018-08-30T10:13:27.250Z,37.87
2018-08-30T10:15:55.601Z,35.70
2018-08-30T10:18:23.825Z,35.70
2018-08-30T10:20:52.096Z,35.17
2018-08-30T10:23:20.373Z,38.33
2018-08-30T10:25:48.647Z,39.53
2018-08-30T10:28:16.910Z,36.20
2018-08-30T10:30:45.196Z,38.40
2018-08-30T10:33:13.474Z,33.73
2018-08-30T10:35:41.782Z,34.07
2018-08-30T10:38:10.055Z,37.60
2018-08-30T10:40:38.328Z,37.07
2018-08-30T10:43:06.610Z,44.40
2018-08-30T10:45:34.880Z,39.27
2018-08-30T10:48:03.153Z,34.13
2018-08-30T10:50:31.429Z,36.33
2018-08-30T10:52:59.707Z,35.90
2018-08-30T10:55:27.982Z,37.87
2018-08-30T10:57:56.265Z,36.37
2018-08-30T11:00:24.573Z,35.37
2018-08-30T11:02:52.855Z,30.30
2018-08-30T11:05:21.145Z,35.10
2018-08-30T11:07:49.461Z,32.87
2018-08-30T11:10:17.713Z,32.30
2018-08-30T11:15:39.281Z,34.00
2018-08-30T11:18:07.549Z,32.40
2018-08-30T11:26:41.472Z,36.80
2018-08-30T11:29:09.793Z,34.87
2018-08-30T11:31:38.098Z,34.77
2018-08-30T11:34:06.669Z,34.57
2018-08-30T11:36:34.982Z,28.07
2018-08-30T11:39:03.689Z,32.83
2018-08-30T11:41:32.091Z,30.40
2018-08-30T11:44:00.375Z,29.90
2018-08-30T11:46:28.715Z,32.43
2018-08-30T11:48:57.034Z,29.70
2018-08-30T11:51:25.356Z,26.50
2018-08-30T11:53:53.708Z,27.93
2018-08-30T11:56:22.059Z,28.60
2018-08-30T11:58:50.344Z,29.40
2018-08-30T12:01:18.637Z,27.93
2018-08-30T12:03:46.978Z,24.57
2018-08-30T12:06:15.317Z,27.70
2018-08-30T12:08:43.657Z,28.03
2018-08-30T12:11:12.226Z,25.57
2018-08-30T12:13:46.190Z,23.97
2018-08-30T12:16:14.529Z,18.97
2018-08-30T12:18:43.345Z,18.90
2018-08-30T12:21:11.809Z,19.27
2018-08-30T12:29:35.519Z,18.63
2018-08-30T12:32:03.925Z,18.73
2018-08-30T12:34:32.343Z,18.93
2018-08-30T12:37:00.632Z,20.97
2018-08-30T12:39:28.995Z,16.60
2018-08-30T12:41:57.362Z,16.17
2018-08-30T12:44:25.642Z,14.43
2018-08-30T12:46:54.059Z,12.93
2018-08-30T12:49:22.333Z,17.57
2018-08-30T12:51:50.784Z,16.03
2018-08-30T12:54:19.073Z,13.17
2018-08-30T12:56:47.434Z,14.17
2018-08-30T12:59:17.234Z,17.40
2018-08-30T13:01:45.937Z,13.47
2018-08-30T13:04:14.402Z,14.60
2018-08-30T13:06:44.511Z,13.10
2018-08-30T13:09:13.773Z,15.63
2018-08-30T13:11:42.123Z,13.27
2018-08-30T13:14:10.338Z,13.93
2018-08-30T13:16:38.485Z,14.40
2018-08-30T13:19:06.994Z,14.37
2018-08-30T13:21:36.651Z,13.00
2018-08-30T13:26:57.347Z,15.43
2018-08-30T13:29:25.745Z,13.50
2018-08-30T13:31:54.016Z,14.17
2018-08-30T13:34:22.511Z,16.90
2018-08-30T13:36:50.850Z,14.77
2018-08-30T13:39:19.176Z,16.37
2018-08-30T13:41:47.336Z,17.10
2018-08-30T13:44:15.672Z,14.47
2018-08-30T13:46:44.155Z,15.20
2018-08-30T13:49:12.497Z,15.03
2018-08-30T13:51:40.882Z,20.57
2018-08-30T13:54:09.087Z,15.20
2018-08-30T13:56:37.273Z,16.27
2018-08-30T13:59:05.655Z,14.57
2018-08-30T14:01:34.003Z,16.07
2018-08-30T14:04:08.416Z,17.03
2018-08-30T14:06:36.636Z,14.60
2018-08-30T14:09:05.826Z,15.90
2018-08-30T14:11:34.359Z,16.93
2018-08-30T14:14:02.695Z,16.53
2018-08-30T14:16:30.737Z,16.53
2018-08-30T15:13:36.453Z,16.20
2018-08-30T15:16:04.752Z,16.47
2018-08-30T15:18:33.189Z,17.00
2018-08-30T15:21:01.644Z,18.07
2018-08-30T15:26:23.180Z,17.40
2018-08-30T15:28:51.512Z,18.80
2018-08-30T15:31:19.846Z,23.00
2018-08-30T15:33:48.184Z,19.97
2018-08-30T15:36:16.493Z,19.40
2018-08-30T15:38:44.839Z,19.70
2018-08-30T15:41:13.229Z,23.07
2018-08-30T15:43:41.485Z,20.57
2018-08-30T15:46:09.900Z,19.30
2018-08-30T15:48:38.256Z,18.17
2018-08-30T15:51:08.161Z,23.50
2018-08-30T15:53:37.362Z,24.20
2018-08-30T15:56:06.145Z,21.23
2018-08-30T15:58:34.528Z,19.13
2018-08-30T16:01:03.440Z,21.23
2018-08-30T16:03:33.193Z,18.97
2018-08-30T16:06:01.685Z,18.70
2018-08-30T16:08:30.015Z,20.80
2018-08-30T16:10:58.384Z,19.77
2018-08-30T16:13:26.817Z,21.47
2018-08-30T16:15:55.208Z,22.10
2018-08-30T16:18:23.574Z,22.73
2018-08-30T16:20:58.288Z,22.07
2018-08-30T16:23:46.011Z,25.47
2018-08-30T17:17:41.898Z,27.63
2018-08-30T17:20:40.609Z,28.17
2018-08-30T17:26:09.394Z,26.53
2018-08-30T17:28:38.079Z,26.20
2018-08-30T17:31:06.520Z,27.57
2018-08-30T17:33:34.821Z,26.03
2018-08-30T17:36:03.145Z,28.13
2018-08-30T17:38:31.502Z,27.03
2018-08-30T17:40:59.874Z,29.93
2018-08-30T17:43:28.214Z,27.50
2018-08-30T17:45:56.554Z,30.57
2018-08-30T17:48:24.888Z,26.47
2018-08-30T17:50:53.237Z,30.97
2018-08-30T17:53:21.542Z,26.87
2018-08-30T17:55:49.966Z,26.87
2018-08-30T17:58:18.185Z,29.43
2018-08-30T18:00:46.499Z,29.37
2018-08-30T18:03:14.817Z,28.17
2018-08-30T18:05:43.125Z,28.20
2018-08-30T18:08:11.466Z,28.60
2018-08-30T18:10:39.727Z,28.03
2018-08-30T18:13:08.002Z,30.40
2018-08-30T18:15:36.315Z,29.70
2018-08-30T18:18:05.316Z,25.90
2018-08-30T18:20:53.053Z,26.20
2018-08-30T18:23:24.392Z,23.23
2018-08-30T18:25:53.136Z,23.93
2018-08-30T18:28:21.461Z,24.77
2018-08-30T18:30:49.786Z,22.77
2018-08-30T18:33:18.104Z,23.03
2018-08-30T18:35:46.456Z,21.00
2018-08-30T18:38:14.869Z,19.60
2018-08-30T18:40:43.189Z,22.77
2018-08-30T18:43:11.737Z,27.17
2018-08-30T18:45:40.078Z,21.63
2018-08-30T18:48:08.357Z,18.77
2018-08-30T18:50:36.657Z,18.27
2018-08-30T18:53:05.937Z,17.67
2018-08-30T18:55:34.208Z,23.67
2018-08-30T18:58:02.959Z,16.57
2018-08-30T19:00:31.246Z,18.33
2018-08-30T19:02:59.514Z,22.83
2018-08-30T19:05:27.778Z,20.10
2018-08-30T19:07:56.076Z,18.40
2018-08-30T19:10:24.381Z,19.27
2018-08-30T20:19:38.016Z,10.23
2018-08-30T20:22:25.216Z,10.17
2018-08-30T20:24:54.516Z,10.10
2018-08-30T20:27:22.861Z,11.53
2018-08-30T20:29:54.289Z,9.17
2018-08-30T20:32:22.621Z,10.13
2018-08-30T20:34:51.148Z,9.53
2018-08-30T20:37:19.501Z,8.30
2018-08-30T20:39:47.885Z,8.33
2018-08-30T20:42:16.213Z,8.20
2018-08-30T20:44:44.540Z,9.57
2018-08-30T20:47:12.866Z,10.73
2018-08-30T20:49:41.202Z,11.27
2018-08-30T20:52:09.542Z,8.07
2018-08-30T20:54:37.860Z,9.60
2018-08-30T20:57:06.306Z,9.63
2018-08-30T20:59:34.700Z,8.00
2018-08-30T21:02:03.118Z,9.17
2018-08-30T21:04:31.460Z,9.10
2018-08-30T21:06:59.782Z,9.47
2018-08-30T21:09:28.088Z,9.23
2018-08-30T21:11:56.425Z,14.00
2018-08-30T21:14:24.773Z,11.63
2018-08-30T21:16:53.113Z,10.93
2018-08-30T21:22:20.541Z,12.93
2018-08-30T21:27:42.062Z,10.90
2018-08-30T21:30:18.279Z,12.17
2018-08-30T21:32:53.874Z,13.87
2018-08-30T21:40:41.554Z,16.17
2018-08-30T21:51:06.555Z,13.53
2018-08-30T21:53:41.826Z,12.60
2018-08-30T22:06:51.457Z,11.77
2018-08-30T22:09:27.930Z,14.30
2018-08-30T22:12:03.506Z,13.37
2018-08-30T22:18:47.511Z,13.93
2018-08-30T22:21:16.129Z,14.53
2018-08-30T22:29:37.586Z,13.00
2018-08-30T22:32:05.919Z,15.53
2018-08-30T22:34:34.237Z,15.73
2018-08-30T22:37:02.545Z,15.53
2018-08-30T22:39:30.874Z,16.93
2018-08-30T22:41:59.243Z,16.20
2018-08-30T22:44:27.603Z,16.33
2018-08-30T22:46:55.921Z,17.57
2018-08-30T22:49:24.272Z,16.10
2018-08-30T22:51:52.577Z,15.50
2018-08-30T22:54:20.884Z,17.90
2018-08-30T22:56:52.169Z,19.37
2018-08-30T22:59:20.484Z,18.70
2018-08-30T23:01:48.758Z,21.80
2018-08-30T23:04:17.055Z,20.27
2018-08-30T23:06:45.409Z,17.00
2018-08-30T23:09:13.613Z,19.33
2018-08-30T23:11:41.969Z,16.83
